Time;durP1;ratioP1;P1;durP2;ratioP2;P2;SDS_P1;SDS_P2;PMS_P1;PMS_P2;Temp;Humidity;BMP_temperature;BMP_pressure;BME280_temperature;BME280_humidity;BME280_pressure;Samples;Min_cycle;Max_cycle;Signal;HPM_P1;HPM_P2
2022/09/22 00:00:54;;;;;;;;;1.67;1.67;;;;;12.92;71.10;100621.75;5078685;28;45444;-67
2022/09/22 00:03:20;;;;;;;;;3.50;3.00;;;;;13.09;71.14;100647.44;5079262;28;45491;-68
2022/09/22 00:05:45;;;;;;;;;2.33;2.33;;;;;13.06;72.01;100663.13;5078380;28;46150;-68
2022/09/22 00:08:11;;;;;;;;;3.25;3.00;;;;;13.03;72.28;100660.44;5078662;28;45310;-67
2022/09/22 00:10:36;;;;;;;;;2.00;1.50;;;;;12.34;71.93;100542.72;5078775;28;45448;-67
2022/09/22 00:13:02;;;;;;;;;2.25;2.00;;;;;12.96;71.91;100643.69;5078865;28;45172;-67
2022/09/22 00:15:29;;;;;;;;;2.00;2.00;;;;;12.94;71.42;100638.41;5078480;28;46272;-67
2022/09/22 00:17:54;;;;;;;;;3.00;2.00;;;;;12.84;71.67;100623.34;5078529;28;45563;-67
2022/09/22 00:20:20;;;;;;;;;1.33;1.33;;;;;12.94;71.67;100640.16;5078498;28;45428;-68
2022/09/22 00:22:49;;;;;;;;;2.00;2.00;;;;;12.93;71.43;100639.28;5078668;28;45305;-68
2022/09/22 00:25:15;;;;;;;;;2.33;1.67;;;;;12.92;71.07;100647.09;5078237;28;46141;-67
2022/09/22 00:27:42;;;;;;;;;2.00;2.00;;;;;12.94;71.49;100641.03;5078252;27;45222;-67
2022/09/22 00:30:08;;;;;;;;;2.00;2.00;;;;;12.92;71.46;100645.34;5077793;28;45409;-68
2022/09/22 00:32:37;;;;;;;;;2.00;2.00;;;;;12.97;71.04;100644.56;5076849;28;45428;-67
2022/09/22 00:35:02;;;;;;;;;1.33;1.33;;;;;12.89;71.09;100640.06;5078190;28;46224;-68
2022/09/22 00:37:28;;;;;;;;;2.00;2.00;;;;;12.86;71.27;100637.34;5078203;27;45301;-68
2022/09/22 00:39:53;;;;;;;;;1.00;1.00;;;;;12.85;70.93;100635.59;5078405;28;45432;-67
2022/09/22 00:42:19;;;;;;;;;1.00;1.00;;;;;12.94;71.23;100648.91;5078477;28;45472;-67
2022/09/22 00:44:45;;;;;;;;;2.00;2.00;;;;;12.82;71.27;100632.03;5077979;28;45466;-67
2022/09/22 00:47:23;;;;;;;;;2.00;2.00;;;;;12.93;71.11;100644.53;5077834;28;45453;-67
2022/09/22 00:49:55;;;;;;;;;1.67;1.67;;;;;12.76;71.89;100627.53;5078158;28;45245;-67
2022/09/22 00:52:26;;;;;;;;;2.00;2.00;;;;;12.84;72.01;100649.53;5078080;27;45468;-67
2022/09/22 00:54:55;;;;;;;;;3.00;3.00;;;;;12.77;72.28;100645.00;5077618;27;46363;-67
2022/09/22 00:57:26;;;;;;;;;1.00;1.00;;;;;12.78;72.18;100644.16;5077760;28;45223;-67
2022/09/22 00:59:53;;;;;;;;;1.33;1.00;;;;;12.73;72.19;100637.91;5077634;28;45410;-67
2022/09/22 01:02:20;;;;;;;;;3.00;2.00;;;;;12.77;71.68;100642.38;5076700;28;45570;-67
2022/09/22 01:04:48;;;;;;;;;2.00;2.00;;;;;12.71;71.98;100637.91;5077507;28;45660;-67
2022/09/22 01:07:14;;;;;;;;;1.00;1.00;;;;;12.63;72.12;100633.31;5077570;28;45479;-67
2022/09/22 01:09:39;;;;;;;;;2.00;2.00;;;;;12.65;71.99;100634.25;5077723;28;45295;-67
2022/09/22 01:12:06;;;;;;;;;3.00;1.00;;;;;12.58;71.76;100622.75;5076560;28;45572;-67
2022/09/22 01:14:55;;;;;;;;;2.00;2.00;;;;;12.64;71.71;100628.13;5077398;28;45386;-67
2022/09/22 01:17:38;;;;;;;;;2.00;2.00;;;;;12.58;71.59;100620.13;5076189;28;45483;-67
2022/09/22 01:20:32;;;;;;;;;1.00;1.00;;;;;12.63;71.33;100649.06;5077601;28;45539;-68
2022/09/22 01:23:34;;;;;;;;;1.00;1.00;;;;;12.61;71.11;100645.50;5078117;28;45371;-67
2022/09/22 01:26:32;;;;;;;;;1.00;1.00;;;;;12.57;71.61;100639.31;5077130;28;45521;-67
2022/09/22 01:29:18;;;;;;;;;2.00;2.00;;;;;12.54;72.01;100632.28;5077313;28;45327;-67
2022/09/22 01:32:06;;;;;;;;;2.00;2.00;;;;;12.52;71.93;100633.97;5077219;28;45434;-68
2022/09/22 01:34:47;;;;;;;;;2.00;1.33;;;;;12.47;72.30;100626.84;5077380;28;45256;-68
2022/09/22 01:37:28;;;;;;;;;1.00;1.00;;;;;12.34;72.00;100605.59;5075653;28;46508;-67
2022/09/22 01:40:06;;;;;;;;;2.00;2.00;;;;;12.41;72.44;100622.34;5077120;28;45353;-67
2022/09/22 01:42:38;;;;;;;;;2.00;2.00;;;;;12.46;72.47;100631.22;5077735;28;45465;-67
2022/09/22 01:45:12;;;;;;;;;1.00;1.00;;;;;12.34;72.75;100618.69;5081145;28;45334;-67
2022/09/22 01:47:51;;;;;;;;;1.50;1.50;;;;;12.33;72.33;100610.78;5080654;28;45505;-68
2022/09/22 01:50:23;;;;;;;;;2.00;2.00;;;;;12.45;72.25;100621.56;5080635;27;45441;-67
2022/09/22 01:52:51;;;;;;;;;2.00;1.00;;;;;12.46;72.37;100625.97;5080853;28;45485;-67
2022/09/22 01:55:29;;;;;;;;;2.00;2.00;;;;;12.34;72.12;100609.97;5080865;27;45281;-67
2022/09/22 01:57:57;;;;;;;;;1.00;1.00;;;;;12.41;72.04;100616.22;5080325;28;45521;-67
2022/09/22 02:00:23;;;;;;;;;1.67;1.67;;;;;12.43;72.11;100625.88;5080397;28;45310;-67
2022/09/22 02:03:15;;;;;;;;;2.00;2.00;;;;;12.40;72.43;100625.81;5080569;27;45356;-67
2022/09/22 02:05:55;;;;;;;;;1.67;1.33;;;;;12.40;71.95;100624.94;5080739;27;45480;-67
2022/09/22 02:08:38;;;;;;;;;2.33;2.00;;;;;12.25;71.91;100600.13;5080415;27;46043;-67
2022/09/22 02:11:12;;;;;;;;;2.00;2.00;;;;;12.30;72.29;100605.50;5080398;28;45531;-68
2022/09/22 02:13:39;;;;;;;;;2.00;2.00;;;;;12.16;71.71;100584.22;5080520;27;45515;-67
2022/09/22 02:16:05;;;;;;;;;1.00;0.67;;;;;12.36;71.80;100620.50;5080557;28;45506;-67
2022/09/22 02:18:39;;;;;;;;;2.00;1.00;;;;;12.33;71.83;100622.19;5080334;28;45523;-67
2022/09/22 02:21:05;;;;;;;;;2.00;1.67;;;;;12.31;72.52;100626.50;5080035;27;45498;-67
2022/09/22 02:23:31;;;;;;;;;1.67;1.67;;;;;12.24;72.25;100610.59;5096449;27;45569;-67
2022/09/22 02:25:58;;;;;;;;;1.00;1.00;;;;;12.25;72.10;100621.09;5080709;27;45463;-67
2022/09/22 02:28:25;;;;;;;;;1.00;1.00;;;;;12.20;72.26;100614.88;5080157;28;46538;-67
2022/09/22 02:30:53;;;;;;;;;2.00;1.33;;;;;12.17;72.79;100622.63;5079977;28;45525;-67
2022/09/22 02:33:22;;;;;;;;;2.00;2.00;;;;;12.17;72.72;100611.28;5080072;28;45444;-67
2022/09/22 02:35:58;;;;;;;;;1.00;1.00;;;;;12.20;72.65;100619.22;5080158;28;45192;-67
2022/09/22 02:38:33;;;;;;;;;1.00;1.00;;;;;12.22;72.30;100626.28;5079892;27;46303;-67
2022/09/22 02:41:21;;;;;;;;;1.67;1.67;;;;;12.19;72.82;100620.06;5080037;28;45177;-67
2022/09/22 02:43:53;;;;;;;;;2.00;1.00;;;;;12.11;72.43;100601.53;5079908;28;45259;-67
2022/09/22 02:46:19;;;;;;;;;2.67;1.67;;;;;12.20;72.70;100614.88;5080296;28;45417;-67
2022/09/22 02:48:50;;;;;;;;;1.00;1.00;;;;;12.20;72.32;100612.25;5079868;28;45921;-67
2022/09/22 02:51:17;;;;;;;;;1.00;1.00;;;;;12.19;72.33;100615.69;5079902;28;45504;-67
2022/09/22 02:53:43;;;;;;;;;2.00;2.00;;;;;12.18;72.62;100619.19;5079355;28;45607;-67
2022/09/22 02:56:09;;;;;;;;;1.33;1.33;;;;;12.09;72.16;100611.97;5080112;28;45527;-67
2022/09/22 02:58:35;;;;;;;;;1.67;1.67;;;;;12.12;72.54;100616.41;5079958;28;46121;-67
2022/09/22 03:01:00;;;;;;;;;2.00;2.00;;;;;12.10;71.99;100605.03;5080079;28;45315;-67
2022/09/22 03:03:26;;;;;;;;;1.00;1.00;;;;;12.12;72.09;100612.06;5079769;28;45337;-67
2022/09/22 03:05:52;;;;;;;;;2.67;2.00;;;;;12.04;71.92;100611.00;5079803;27;45371;-67
2022/09/22 03:08:17;;;;;;;;;1.00;1.00;;;;;11.99;71.97;100596.00;5079344;28;45549;-67
2022/09/22 03:10:43;;;;;;;;;2.00;1.00;;;;;12.09;71.86;100611.09;5079378;28;45402;-67
2022/09/22 03:13:08;;;;;;;;;2.25;2.00;;;;;11.89;71.55;100580.06;5079366;28;45248;-67
2022/09/22 03:15:34;;;;;;;;;2.00;2.00;;;;;11.89;72.37;100597.50;5079848;28;45529;-67
2022/09/22 03:17:59;;;;;;;;;2.00;1.25;;;;;11.92;72.16;100595.84;5079087;28;46257;-67
2022/09/22 03:20:25;;;;;;;;;1.00;1.00;;;;;11.94;71.69;100599.41;5079488;28;45259;-67
2022/09/22 03:22:50;;;;;;;;;1.00;1.00;;;;;11.99;71.97;100603.84;5079442;28;45142;-67
2022/09/22 03:25:16;;;;;;;;;1.25;1.00;;;;;11.96;72.14;100601.16;5079625;28;45368;-67
2022/09/22 03:27:41;;;;;;;;;1.00;1.00;;;;;11.82;72.54;100587.72;5079309;28;46219;-67
2022/09/22 03:30:08;;;;;;;;;2.00;2.00;;;;;11.80;73.06;100598.13;5079043;28;45375;-67
2022/09/22 03:32:34;;;;;;;;;1.00;1.00;;;;;11.86;73.01;100614.00;5079567;27;45302;-67
2022/09/22 03:35:00;;;;;;;;;1.00;1.00;;;;;11.79;72.63;100598.09;5079298;28;45521;-67
2022/09/22 03:37:26;;;;;;;;;1.75;1.00;;;;;11.75;72.72;100587.53;5078853;28;45424;-67
2022/09/22 03:39:52;;;;;;;;;2.00;2.00;;;;;11.79;73.24;100595.47;5079025;28;45475;-67
2022/09/22 03:42:18;;;;;;;;;1.75;1.75;;;;;11.79;72.81;100604.19;5078950;28;45464;-67
2022/09/22 03:44:43;;;;;;;;;3.00;2.00;;;;;11.75;72.93;100597.13;5079318;27;45392;-67
2022/09/22 03:47:09;;;;;;;;;1.50;1.00;;;;;11.30;72.75;100508.72;5078793;28;46482;-70
2022/09/22 03:49:35;;;;;;;;;2.25;2.00;;;;;11.73;72.64;100580.50;5077685;28;45483;-67
2022/09/22 03:52:01;;;;;;;;;1.50;1.50;;;;;11.79;72.57;100593.72;5078963;28;45439;-71
2022/09/22 03:54:27;;;;;;;;;2.00;1.00;;;;;11.89;72.76;100614.09;5079076;28;45372;-71
2022/09/22 03:56:52;;;;;;;;;3.25;3.00;;;;;11.85;72.65;100603.47;5078556;28;45530;-71
2022/09/22 03:59:18;;;;;;;;;3.75;3.00;;;;;11.79;72.60;100591.13;5077356;28;45668;-71
2022/09/22 04:01:44;;;;;;;;;1.00;1.00;;;;;11.69;72.75;100573.41;5079013;28;45287;-69
2022/09/22 04:04:09;;;;;;;;;2.00;2.00;;;;;11.73;72.71;100591.84;5078926;28;45504;-68
2022/09/22 04:06:36;;;;;;;;;1.00;1.00;;;;;11.74;72.33;100595.38;5077749;28;46517;-71
2022/09/22 04:09:02;;;;;;;;;1.67;1.33;;;;;11.86;72.61;100615.72;5078598;28;45602;-71
2022/09/22 04:11:28;;;;;;;;;1.00;1.00;;;;;11.71;72.14;100588.28;5078567;28;45576;-70
2022/09/22 04:13:54;;;;;;;;;2.67;2.00;;;;;11.69;72.60;100602.19;5078555;27;45312;-69
2022/09/22 04:16:19;;;;;;;;;1.00;1.00;;;;;11.69;73.06;100616.16;5078492;28;45569;-71
2022/09/22 04:18:46;;;;;;;;;3.00;1.50;;;;;11.62;73.70;100606.38;5076995;28;45356;-71
2022/09/22 04:21:11;;;;;;;;;2.33;2.33;;;;;11.52;74.09;100599.16;5078763;28;45292;-71
2022/09/22 04:23:37;;;;;;;;;2.50;2.50;;;;;11.49;74.52;100589.47;5078975;27;45493;-71
2022/09/22 04:26:04;;;;;;;;;3.25;3.00;;;;;11.57;73.95;100607.09;5078035;28;45408;-68
2022/09/22 04:28:30;;;;;;;;;3.00;2.00;;;;;11.57;74.03;100610.59;5078289;28;45215;-71
2022/09/22 04:30:56;;;;;;;;;4.00;2.67;;;;;11.52;73.85;100600.03;5078336;28;45264;-71
2022/09/22 04:33:23;;;;;;;;;2.00;1.00;;;;;11.54;74.21;100607.91;5078466;28;45548;-71
2022/09/22 04:35:48;;;;;;;;;3.75;3.00;;;;;11.47;74.37;100592.88;5077861;27;45459;-70
2022/09/22 04:38:14;;;;;;;;;2.00;2.00;;;;;11.40;74.22;100585.72;5078012;27;45459;-68
2022/09/22 04:40:40;;;;;;;;;4.00;3.00;;;;;11.54;74.42;100603.56;5078540;28;45406;-68
2022/09/22 04:43:05;;;;;;;;;2.00;2.00;;;;;11.57;73.97;100602.75;5078309;28;45522;-69
2022/09/22 04:45:31;;;;;;;;;1.50;1.25;;;;;11.58;74.25;100604.53;5077902;28;45507;-71
2022/09/22 04:47:56;;;;;;;;;2.25;2.25;;;;;11.44;74.54;100584.94;5077857;28;45503;-67
2022/09/22 04:50:23;;;;;;;;;2.75;2.75;;;;;11.57;74.59;100601.88;5076725;28;45273;-71
2022/09/22 04:52:54;;;;;;;;;3.00;3.00;;;;;11.60;74.08;100613.31;5078283;27;45389;-71
2022/09/22 04:55:21;;;;;;;;;3.00;3.00;;;;;11.62;73.40;100610.72;5077529;28;45415;-67
2022/09/22 04:57:48;;;;;;;;;3.00;2.00;;;;;11.55;73.63;100610.56;5076692;27;45362;-71
2022/09/22 05:00:14;;;;;;;;;1.75;1.75;;;;;11.50;73.69;100601.72;5077877;28;45543;-68
2022/09/22 05:02:40;;;;;;;;;2.00;2.00;;;;;11.55;73.80;100609.66;5078408;27;45246;-71
2022/09/22 05:05:07;;;;;;;;;2.75;2.75;;;;;11.53;73.45;100603.50;5077621;28;45207;-68
2022/09/22 05:07:33;;;;;;;;;4.25;3.50;;;;;11.52;72.98;100602.63;5077931;28;45883;-68
2022/09/22 05:09:58;;;;;;;;;3.00;3.00;;;;;11.56;72.89;100616.69;5077603;28;45310;-67
2022/09/22 05:12:25;;;;;;;;;2.00;2.00;;;;;11.57;73.56;100617.56;5077848;28;45644;-67
2022/09/22 05:14:51;;;;;;;;;2.00;1.75;;;;;11.51;73.33;100613.94;5077371;27;45483;-70
2022/09/22 05:17:16;;;;;;;;;2.00;2.00;;;;;11.53;73.53;100616.59;5077089;28;45453;-71
2022/09/22 05:19:42;;;;;;;;;2.50;2.00;;;;;11.43;73.48;100599.75;5077840;27;45414;-68
2022/09/22 05:22:07;;;;;;;;;2.00;1.25;;;;;11.48;73.59;100608.63;5077860;28;45384;-67
2022/09/22 05:24:33;;;;;;;;;2.00;2.00;;;;;11.48;73.33;100623.41;5077324;28;46321;-71
2022/09/22 05:26:58;;;;;;;;;3.00;1.67;;;;;11.54;73.80;100623.63;5077380;28;45254;-67
2022/09/22 05:29:24;;;;;;;;;2.00;2.00;;;;;11.50;74.29;100619.16;5077445;28;45464;-70
2022/09/22 05:31:50;;;;;;;;;2.00;2.00;;;;;11.33;74.64;100602.97;5077366;28;45564;-69
2022/09/22 05:34:16;;;;;;;;;3.00;3.00;;;;;11.58;73.98;100630.69;5077284;27;45248;-67
2022/09/22 05:36:41;;;;;;;;;6.00;5.50;;;;;11.46;73.79;100610.31;5076340;27;45530;-70
2022/09/22 05:39:07;;;;;;;;;4.00;4.00;;;;;11.47;73.92;100622.53;5075976;28;45599;-67
2022/09/22 05:41:32;;;;;;;;;3.00;3.00;;;;;11.47;74.24;100611.19;5077563;28;45431;-70
2022/09/22 05:43:58;;;;;;;;;4.50;4.50;;;;;11.43;74.36;100617.19;5077327;27;46156;-68
2022/09/22 05:46:23;;;;;;;;;4.00;4.00;;;;;11.40;73.88;100615.38;5077206;28;45392;-67
2022/09/22 05:48:49;;;;;;;;;2.00;2.00;;;;;11.27;74.14;100580.16;5075985;28;45313;-67
2022/09/22 05:51:15;;;;;;;;;2.00;2.00;;;;;11.57;73.93;100636.75;5077598;27;45527;-67
2022/09/22 05:53:40;;;;;;;;;4.00;3.75;;;;;11.41;74.14;100598.84;5077291;28;45420;-70
2022/09/22 05:56:06;;;;;;;;;2.00;2.00;;;;;11.57;73.97;100622.81;5077087;28;45358;-67
2022/09/22 05:58:31;;;;;;;;;6.25;5.75;;;;;11.62;73.74;100627.31;5075493;28;45490;-67
2022/09/22 06:00:57;;;;;;;;;5.00;4.25;;;;;11.62;73.30;100624.72;5077250;28;45476;-71
2022/09/22 06:03:23;;;;;;;;;3.00;3.00;;;;;11.59;73.24;100615.88;5076903;28;46266;-69
2022/09/22 06:05:49;;;;;;;;;2.75;2.25;;;;;11.65;73.34;100629.13;5075278;28;45258;-67
2022/09/22 06:08:14;;;;;;;;;3.00;2.25;;;;;11.73;73.48;100638.06;5077051;28;45511;-68
2022/09/22 06:10:40;;;;;;;;;1.50;1.50;;;;;11.64;73.39;100620.41;5077060;28;45423;-67
2022/09/22 06:13:08;;;;;;;;;3.00;3.00;;;;;11.73;73.32;100631.09;5076999;28;45559;-69
2022/09/22 06:15:35;;;;;;;;;2.00;2.00;;;;;11.69;73.17;100620.50;5076918;27;45486;-67
2022/09/22 06:18:02;;;;;;;;;2.00;2.00;;;;;11.79;73.26;100637.34;5076753;28;45335;-67
2022/09/22 06:20:28;;;;;;;;;3.00;3.00;;;;;11.73;74.06;100627.59;5076912;27;45416;-67
2022/09/22 06:22:55;;;;;;;;;4.00;2.00;;;;;11.75;73.89;100628.53;5092262;27;47436;-67
2022/09/22 06:25:22;;;;;;;;;3.50;3.00;;;;;11.78;73.17;100619.84;5076701;27;45254;-67
2022/09/22 06:27:58;;;;;;;;;3.75;3.50;;;;;11.87;73.04;100627.97;5076597;28;45476;-67
2022/09/22 06:30:24;;;;;;;;;2.75;2.75;;;;;11.90;72.89;100630.72;5079497;28;45449;-67
2022/09/22 06:32:53;;;;;;;;;8.50;3.75;;;;;12.00;73.24;100637.94;5079709;28;46033;-67
2022/09/22 06:35:19;;;;;;;;;5.50;5.00;;;;;11.94;72.89;100614.22;5079764;28;45472;-67
2022/09/22 06:37:46;;;;;;;;;3.00;3.00;;;;;11.95;73.08;100608.13;5078922;28;45235;-67
2022/09/22 06:40:12;;;;;;;;;3.00;2.75;;;;;11.96;72.75;100602.06;5080114;28;45504;-67
2022/09/22 06:42:37;;;;;;;;;3.00;2.00;;;;;12.10;72.52;100619.00;5079626;28;45970;-67
2022/09/22 06:45:03;;;;;;;;;4.00;2.33;;;;;12.27;72.37;100636.84;5080062;27;45363;-69
2022/09/22 06:47:31;;;;;;;;;4.00;3.00;;;;;12.40;72.52;100641.53;5080037;28;45319;-67
2022/09/22 06:49:57;;;;;;;;;3.00;2.00;;;;;12.45;72.23;100634.66;5078634;27;45550;-67
2022/09/22 06:52:22;;;;;;;;;5.00;5.00;;;;;12.51;71.78;100637.47;5079659;28;45351;-67
2022/09/22 06:54:48;;;;;;;;;4.00;2.67;;;;;12.60;71.64;100628.03;5080061;28;45489;-67
2022/09/22 06:57:16;;;;;;;;;4.33;3.67;;;;;13.30;70.98;100641.81;5078663;28;45430;-67
2022/09/22 06:59:42;;;;;;;;;5.50;4.75;;;;;16.33;65.24;100640.00;5079729;27;45429;-67
2022/09/22 07:02:08;;;;;;;;;11.00;8.33;;;;;18.74;56.72;100566.69;5077725;28;45595;-68
2022/09/22 07:04:34;;;;;;;;;14.33;11.33;;;;;20.81;49.51;100590.00;5079478;28;45410;-69
2022/09/22 07:07:01;;;;;;;;;12.67;10.67;;;;;22.47;44.86;100624.00;5079462;28;45546;-68
2022/09/22 07:09:27;;;;;;;;;10.00;7.00;;;;;23.50;43.72;100584.66;5078272;28;45322;-69
2022/09/22 07:11:52;;;;;;;;;4.00;4.00;;;;;24.63;41.31;100593.44;5079302;28;45914;-69
2022/09/22 07:14:21;;;;;;;;;3.00;3.00;;;;;25.73;39.65;100600.91;5079886;28;45559;-69
2022/09/22 07:16:47;;;;;;;;;2.00;1.00;;;;;26.74;37.43;100602.00;5078631;28;45295;-69
2022/09/22 07:19:13;;;;;;;;;2.67;1.33;;;;;27.50;35.14;100589.31;5079460;28;45184;-72
2022/09/22 07:21:39;;;;;;;;;2.00;2.00;;;;;28.39;34.38;100603.56;5079030;28;45333;-69
2022/09/22 07:24:08;;;;;;;;;2.33;2.00;;;;;28.97;32.03;100600.16;5077597;28;45538;-69
2022/09/22 07:26:36;;;;;;;;;2.00;2.00;;;;;29.32;32.57;100611.13;5079404;28;45489;-70
2022/09/22 07:29:10;;;;;;;;;2.67;2.00;;;;;29.68;33.12;100588.75;5079420;28;45207;-70
2022/09/22 07:31:36;;;;;;;;;1.00;1.00;;;;;30.15;31.05;100599.03;5078608;27;45674;-72
2022/09/22 07:34:02;;;;;;;;;2.00;2.00;;;;;30.45;30.25;100582.25;5078990;28;45395;-70
2022/09/22 07:36:30;;;;;;;;;2.67;2.00;;;;;31.00;30.55;100609.00;5079191;28;45510;-70
2022/09/22 07:39:01;;;;;;;;;2.00;1.00;;;;;31.38;29.18;100594.34;5079334;27;45341;-70
2022/09/22 07:41:29;;;;;;;;;2.00;2.00;;;;;31.87;28.74;100597.84;5078808;28;45660;-70
2022/09/22 07:45:11;;;;;;;;;3.00;2.00;;;;;32.10;28.37;100609.16;5078798;28;45359;-73
2022/09/22 07:46:42;;;;;;;;;2.67;2.00;;;;;32.43;27.21;100606.28;5078638;27;45213;-71
2022/09/22 07:49:08;;;;;;;;;2.00;1.33;;;;;32.16;28.43;100548.47;5078763;27;45234;-70
2022/09/22 07:51:34;;;;;;;;;2.00;2.00;;;;;32.82;26.72;100609.34;5076360;28;47894;-70
2022/09/22 07:54:09;;;;;;;;;2.00;2.00;;;;;32.97;27.07;100594.88;5077965;28;45428;-71
2022/09/22 07:56:38;;;;;;;;;1.33;1.33;;;;;33.32;26.81;100591.75;5078446;28;45620;-71
2022/09/22 07:59:07;;;;;;;;;2.00;2.00;;;;;33.41;26.04;100610.13;5078628;27;45433;-71
2022/09/22 08:01:33;;;;;;;;;1.67;1.67;;;;;33.57;26.75;100604.59;5078179;27;45520;-72
2022/09/22 08:04:00;;;;;;;;;2.33;1.67;;;;;33.95;26.81;100614.75;5111181;27;45490;-71
2022/09/22 08:06:26;;;;;;;;;2.00;1.33;;;;;34.27;25.50;100611.72;5078504;28;45243;-71
2022/09/22 08:08:55;;;;;;;;;2.67;0.67;;;;;34.59;25.76;100612.22;5077505;28;45520;-73
2022/09/22 08:11:26;;;;;;;;;3.67;1.67;;;;;35.01;25.43;100599.31;5077293;27;46352;-72
2022/09/22 08:13:58;;;;;;;;;1.00;1.00;;;;;35.53;24.82;100594.66;5078739;28;45287;-71
2022/09/22 08:16:27;;;;;;;;;0.67;0.67;;;;;36.06;24.91;100610.69;5078491;27;45196;-71
2022/09/22 08:18:55;;;;;;;;;0.67;0.67;;;;;36.59;23.47;100610.25;5078235;28;45381;-73
2022/09/22 08:21:34;;;;;;;;;0.67;0.67;;;;;36.75;24.25;100616.28;5077976;27;45541;-72
2022/09/22 08:24:11;;;;;;;;;1.00;1.00;;;;;37.01;22.77;100614.19;5076386;28;45287;-72
2022/09/22 08:26:38;;;;;;;;;1.67;1.67;;;;;37.44;23.00;100618.00;5077282;28;45471;-69
2022/09/22 08:29:05;;;;;;;;;1.67;1.67;;;;;37.80;23.11;100616.88;5078248;28;45410;-70
2022/09/22 08:31:32;;;;;;;;;1.00;1.00;;;;;38.32;21.58;100616.16;5077441;28;46142;-70
2022/09/22 08:33:58;;;;;;;;;1.67;1.67;;;;;38.29;21.68;100606.41;5075812;27;45441;-70
2022/09/22 08:36:28;;;;;;;;;1.33;1.33;;;;;38.23;20.69;100614.25;5076308;28;45524;-70
2022/09/22 08:38:57;;;;;;;;;0.67;0.67;;;;;38.26;21.67;100616.69;5076034;28;45196;-71
2022/09/22 08:41:36;;;;;;;;;2.00;2.00;;;;;38.28;22.24;100621.06;5077487;28;45446;-70
2022/09/22 08:44:09;;;;;;;;;0.67;0.67;;;;;38.24;22.27;100616.81;5077209;28;45511;-69
2022/09/22 08:46:46;;;;;;;;;1.00;0.67;;;;;38.09;21.97;100619.03;5077558;27;45686;-69
2022/09/22 08:52:48;;;;;;;;;1.00;1.00;;;;;38.32;21.40;100616.16;5076450;28;45494;-70
2022/09/22 08:55:19;;;;;;;;;0.33;0.33;;;;;38.34;21.86;100615.06;5076847;27;45300;-70
2022/09/22 08:58:06;;;;;;;;;0.00;0.00;;;;;38.30;21.37;100612.72;5077297;28;45519;-71
2022/09/22 09:01:10;;;;;;;;;1.67;0.67;;;;;38.06;20.98;100612.94;5077618;28;45214;-71
2022/09/22 09:03:59;;;;;;;;;0.67;0.67;;;;;37.59;21.97;100610.47;5077072;27;45448;-71
2022/09/22 09:06:59;;;;;;;;;0.67;0.67;;;;;37.27;22.72;100605.78;5075605;28;45385;-71
2022/09/22 09:10:04;;;;;;;;;1.67;1.67;;;;;36.76;22.67;100620.72;5092644;27;45313;-71
2022/09/22 09:12:47;;;;;;;;;1.33;1.33;;;;;36.60;23.53;100603.84;5058698;28;46167;-72
2022/09/22 09:15:42;;;;;;;;;0.67;0.67;;;;;36.50;23.60;100608.25;5075612;28;45573;-71
2022/09/22 09:18:14;;;;;;;;;1.33;0.67;;;;;36.35;24.00;100607.59;5075394;28;45555;-71
2022/09/22 09:20:51;;;;;;;;;0.33;0.33;;;;;36.24;24.21;100620.19;5077057;28;45348;-71
2022/09/22 09:23:21;;;;;;;;;0.00;0.00;;;;;36.21;23.99;100609.53;5075962;28;45563;-73
2022/09/22 09:25:52;;;;;;;;;1.67;0.67;;;;;36.30;24.18;100627.00;5075450;28;47698;-71
2022/09/22 09:28:34;;;;;;;;;3.00;3.00;;;;;36.18;23.93;100617.06;5076903;28;45554;-71
2022/09/22 09:31:47;;;;;;;;;1.67;0.67;;;;;36.12;23.74;100618.38;5076751;27;45546;-71
2022/09/22 09:34:16;;;;;;;;;1.00;1.00;;;;;36.07;23.14;100616.97;5071497;28;45762;-71
2022/09/22 09:36:54;;;;;;;;;0.67;0.67;;;;;36.05;23.93;100600.78;5074691;28;46662;-71
2022/09/22 09:39:30;;;;;;;;;1.00;0.67;;;;;35.80;23.42;100602.66;5076384;28;45455;-71
2022/09/22 09:41:59;;;;;;;;;0.00;0.00;;;;;36.01;24.54;100611.03;5077118;28;45380;-71
2022/09/22 09:44:38;;;;;;;;;0.33;0.00;;;;;36.40;23.83;100611.69;5077146;28;45524;-71
2022/09/22 09:47:07;;;;;;;;;0.67;0.67;;;;;36.67;24.00;100609.69;5076162;28;46105;-71
2022/09/22 09:49:33;;;;;;;;;0.67;0.67;;;;;36.26;24.95;100598.31;5076685;28;45577;-71
2022/09/22 09:52:00;;;;;;;;;0.00;0.00;;;;;36.12;25.04;100593.91;5077131;28;45221;-70
2022/09/22 09:54:26;;;;;;;;;2.67;2.67;;;;;35.83;25.80;100601.53;5076944;27;45508;-70
2022/09/22 09:57:10;;;;;;;;;1.00;1.00;;;;;35.77;25.00;100585.69;5076289;28;45563;-70
2022/09/22 10:02:27;;;;;;;;;1.67;1.67;;;;;36.07;23.93;100587.94;5076353;28;45317;-71
2022/09/22 10:05:26;;;;;;;;;0.67;0.67;;;;;35.91;23.61;100598.25;5078722;28;45213;-72
2022/09/22 10:08:12;;;;;;;;;1.00;1.00;;;;;35.62;22.64;100591.28;5079276;27;46231;-72
2022/09/22 10:10:40;;;;;;;;;0.67;0.67;;;;;35.54;22.19;100599.13;5079885;28;45509;-70
2022/09/22 10:13:05;;;;;;;;;1.67;0.67;;;;;35.13;23.16;100600.28;5079930;27;45529;-70
2022/09/22 10:15:36;;;;;;;;;0.67;0.67;;;;;35.12;22.48;100598.56;5078977;28;45582;-71
2022/09/22 10:18:25;;;;;;;;;1.33;1.33;;;;;34.76;21.28;100597.50;5079843;28;45415;-71
2022/09/22 10:21:16;;;;;;;;;0.67;0.67;;;;;33.95;21.21;100586.78;5079667;28;46003;-71
2022/09/22 10:23:48;;;;;;;;;2.67;1.67;;;;;34.01;22.98;100586.38;5079742;28;45325;-73
2022/09/22 10:26:19;;;;;;;;;3.00;2.33;;;;;34.06;24.18;100595.94;5080154;27;45429;-73
2022/09/22 10:29:06;;;;;;;;;0.67;0.67;;;;;34.10;24.91;100595.72;5079565;28;45725;-70
2022/09/22 10:31:31;;;;;;;;;1.00;1.00;;;;;33.79;25.23;100598.66;5078352;28;45554;-70
2022/09/22 10:33:59;;;;;;;;;2.00;1.00;;;;;33.76;26.41;100593.41;5080086;28;45499;-71
2022/09/22 10:36:29;;;;;;;;;0.67;0.67;;;;;33.54;26.95;100566.00;5080466;27;45515;-70
2022/09/22 10:38:55;;;;;;;;;3.67;3.00;;;;;33.56;27.06;100575.75;5079514;28;46208;-72
2022/09/22 10:41:27;;;;;;;;;9.00;7.67;;;;;33.48;26.65;100579.00;5079571;28;45338;-70
2022/09/22 10:44:00;;;;;;;;;2.00;2.00;;;;;33.17;27.17;100553.03;5079842;27;45500;-71
2022/09/22 10:46:48;;;;;;;;;3.00;3.00;;;;;32.94;28.04;100573.41;5078374;28;45704;-70
2022/09/22 10:49:45;;;;;;;;;7.67;7.33;;;;;32.77;28.11;100579.88;5079514;28;46153;-70
2022/09/22 10:52:22;;;;;;;;;1.33;1.33;;;;;32.59;28.68;100565.69;5079580;27;45418;-70
2022/09/22 10:55:33;;;;;;;;;2.33;2.33;;;;;32.23;29.35;100572.34;5078065;28;45603;-71
2022/09/22 10:58:07;;;;;;;;;2.00;0.50;;;;;31.99;28.99;100571.03;5080135;28;45479;-70
2022/09/22 11:00:38;;;;;;;;;2.33;1.33;;;;;31.09;29.31;100497.00;5079624;27;46219;-70
2022/09/22 11:03:16;;;;;;;;;1.67;1.67;;;;;31.30;30.16;100565.94;5078033;28;45330;-72
2022/09/22 11:12:17;;;;;;;;;1.00;1.00;;;;;30.77;29.92;100556.25;5079000;28;45816;-70
2022/09/22 11:15:02;;;;;;;;;1.33;1.00;;;;;30.59;29.97;100552.72;5077190;28;45452;-70
2022/09/22 11:17:30;;;;;;;;;1.00;1.00;;;;;30.20;30.24;100551.16;5095182;27;45273;-70
2022/09/22 11:20:24;;;;;;;;;2.00;2.00;;;;;29.84;31.50;100543.13;5079503;28;45462;-70
2022/09/22 11:23:27;;;;;;;;;1.67;1.67;;;;;29.69;32.02;100540.22;5077726;28;45525;-70
2022/09/22 11:26:12;;;;;;;;;2.00;2.00;;;;;29.54;32.05;100524.81;5079022;27;45243;-70
2022/09/22 11:29:04;;;;;;;;;1.00;1.00;;;;;29.17;32.74;100533.81;5077363;28;45514;-70
2022/09/22 11:31:41;;;;;;;;;2.67;2.00;;;;;28.98;33.88;100531.97;5079330;28;45371;-71
2022/09/22 11:34:25;;;;;;;;;4.67;3.67;;;;;28.83;33.80;100536.25;5078186;28;46510;-72
2022/09/22 11:37:24;;;;;;;;;7.00;7.00;;;;;28.81;33.74;100513.94;5078865;27;45443;-71
2022/09/22 11:40:38;;;;;;;;;6.00;5.67;;;;;28.90;34.06;100526.06;5078679;27;45392;-70
2022/09/22 11:43:34;;;;;;;;;2.00;2.00;;;;;28.81;33.73;100527.38;5081398;27;45405;-71
2022/09/22 11:46:46;;;;;;;;;3.00;2.00;;;;;28.78;34.04;100530.22;5078254;28;45346;-71
2022/09/22 11:49:24;;;;;;;;;2.00;2.00;;;;;28.54;34.92;100516.06;5072731;28;45299;-71
2022/09/22 11:52:05;;;;;;;;;2.00;2.00;;;;;28.46;35.74;100523.59;5078442;28;45523;-71
2022/09/22 11:54:55;;;;;;;;;3.00;3.00;;;;;28.22;35.81;100515.66;5078365;28;45478;-71
2022/09/22 11:57:26;;;;;;;;;3.00;3.00;;;;;27.98;36.42;100506.88;5078401;28;45740;-71